Time;durP1;ratioP1;P1;durP2;ratioP2;P2;SDS_P1;SDS_P2;PMS_P1;PMS_P2;Temp;Humidity;BMP_temperature;BMP_pressure;BME280_temperature;BME280_humidity;BME280_pressure;Samples;Min_cycle;Max_cycle;Signal;HPM_P1;HPM_P2
2023/01/29 00:01:29;;;;;;;;;;;;;;;;;;5034089;28;19985;-75
2023/01/29 00:03:55;;;;;;;;;;;;;;;;;;5034174;28;19909;-75
2023/01/29 00:06:22;;;;;;;;;;;;;;;;;;5033932;28;19924;-75
2023/01/29 00:08:48;;;;;;;;;;;;;;;;;;5033830;28;19947;-75
2023/01/29 00:11:15;;;;;;;;;;;;;;;;;;5033754;28;20361;-74
2023/01/29 00:13:41;;;;;;;;;;;;;;;;;;5033441;28;20380;-75
2023/01/29 00:16:07;;;;;;;;;;;;;;;;;;5034019;28;19925;-75
2023/01/29 00:18:33;;;;;;;;;;;;;;;;;;5033664;28;19909;-75
2023/01/29 00:20:59;;;;;;;;;;;;;;;;;;5033815;28;19909;-76
2023/01/29 00:23:25;;;;;;;;;;;;;;;;;;5033611;28;19909;-75
2023/01/29 00:25:50;;;;;;;;;;;;;;;;;;5033606;28;19913;-75
2023/01/29 00:28:16;;;;;;;;;;;;;;;;;;5033607;28;19948;-74
2023/01/29 00:30:42;;;;;;;;;;;;;;;;;;5033739;28;20312;-75
2023/01/29 00:33:10;;;;;;;;;;;;;;;;;;5034932;28;19924;-74
2023/01/29 00:35:36;;;;;;;;;;;;;;;;;;5037471;28;19913;-75
2023/01/29 00:38:02;;;;;;;;;;;;;;;;;;5037711;28;20266;-75
2023/01/29 00:44:56;;;;;;;;;;;;;;;;;;5037477;28;20364;-74
2023/01/29 00:45:59;;;;;;;;;;;;;;;;;;5037113;28;19958;-75
2023/01/29 00:48:25;;;;;;;;;;;;;;;;;;5036025;28;19992;-75
2023/01/29 00:50:50;;;;;;;;;;;;;;;;;;5037254;28;19941;-75
2023/01/29 00:53:16;;;;;;;;;;;;;;;;;;5037248;28;19917;-75
2023/01/29 00:55:42;;;;;;;;;;;;;;;;;;5037159;28;20300;-75
2023/01/29 00:58:08;;;;;;;;;;;;;;;;;;5035895;28;20388;-75
2023/01/29 01:00:34;;;;;;;;;;;;;;;;;;5037079;28;19916;-75
2023/01/29 01:03:06;;;;;;;;;;;;;;;;;;5036999;28;19910;-76
2023/01/29 01:05:32;;;;;;;;;;;;;;;;;;5036984;28;19909;-75
2023/01/29 01:07:58;;;;;;;;;;;;;;;;;;5036954;28;20397;-75
2023/01/29 01:10:24;;;;;;;;;;;;;;;;;;5035606;28;19917;-75
2023/01/29 01:12:50;;;;;;;;;;;;;;;;;;5037075;28;19967;-75
2023/01/29 01:15:16;;;;;;;;;;;;;;;;;;5035212;28;20385;-74
2023/01/29 01:17:42;;;;;;;;;;;;;;;;;;5035481;28;20071;-76
2023/01/29 01:20:08;;;;;;;;;;;;;;;;;;5035454;28;19913;-75
2023/01/29 01:22:34;;;;;;;;;;;;;;;;;;5036696;28;19949;-74
2023/01/29 01:25:00;;;;;;;;;;;;;;;;;;5037064;28;20023;-75
2023/01/29 01:27:26;;;;;;;;;;;;;;;;;;5036889;28;20004;-75
2023/01/29 01:29:52;;;;;;;;;;;;;;;;;;5036525;28;19948;-75
2023/01/29 01:32:18;;;;;;;;;;;;;;;;;;5036582;28;20377;-75
2023/01/29 01:34:44;;;;;;;;;;;;;;;;;;5036330;28;19909;-75
2023/01/29 01:37:10;;;;;;;;;;;;;;;;;;5036549;28;19920;-75
2023/01/29 01:39:36;;;;;;;;;;;;;;;;;;5036370;28;20266;-75
2023/01/29 01:42:02;;;;;;;;;;;;;;;;;;5036512;28;20421;-74
2023/01/29 01:44:28;;;;;;;;;;;;;;;;;;5036264;28;20362;-75
2023/01/29 01:46:54;;;;;;;;;;;;;;;;;;5036681;28;19955;-75
2023/01/29 01:49:20;;;;;;;;;;;;;;;;;;5036457;28;19914;-75
2023/01/29 01:51:46;;;;;;;;;;;;;;;;;;5034884;28;19909;-75
2023/01/29 01:54:12;;;;;;;;;;;;;;;;;;5036114;28;20320;-74
2023/01/29 01:56:39;;;;;;;;;;;;;;;;;;5034617;28;20384;-75
2023/01/29 01:59:05;;;;;;;;;;;;;;;;;;5034658;28;19913;-74
2023/01/29 02:01:31;;;;;;;;;;;;;;;;;;5036178;28;20333;-74
2023/01/29 02:09:35;;;;;;;;;;;;;;;;;;5035699;28;19940;-75
2023/01/29 02:12:01;;;;;;;;;;;;;;;;;;5035898;28;20281;-75
2023/01/29 02:14:27;;;;;;;;;;;;;;;;;;5034046;28;19924;-75
2023/01/29 02:16:53;;;;;;;;;;;;;;;;;;5034341;28;19963;-75
2023/01/29 02:19:19;;;;;;;;;;;;;;;;;;5034369;28;19909;-75
2023/01/29 02:21:45;;;;;;;;;;;;;;;;;;5034325;28;19956;-75
2023/01/29 02:24:11;;;;;;;;;;;;;;;;;;5034284;28;19936;-75
2023/01/29 02:26:37;;;;;;;;;;;;;;;;;;5035662;28;19909;-75
2023/01/29 02:29:21;;;;;;;;;;;;;;;;;;5035449;28;19916;-74
2023/01/29 02:31:47;;;;;;;;;;;;;;;;;;5035531;28;19944;-75
2023/01/29 02:34:13;;;;;;;;;;;;;;;;;;5035559;28;19909;-75
2023/01/29 02:36:39;;;;;;;;;;;;;;;;;;5035452;28;19913;-75
2023/01/29 02:39:05;;;;;;;;;;;;;;;;;;5035320;28;19997;-74
2023/01/29 02:41:30;;;;;;;;;;;;;;;;;;5035151;28;19940;-75
2023/01/29 02:43:56;;;;;;;;;;;;;;;;;;5035439;28;19909;-75
2023/01/29 02:46:22;;;;;;;;;;;;;;;;;;5035119;28;20308;-74
2023/01/29 02:48:48;;;;;;;;;;;;;;;;;;5035240;28;19959;-75
2023/01/29 02:51:14;;;;;;;;;;;;;;;;;;5035136;28;19909;-75
2023/01/29 02:53:40;;;;;;;;;;;;;;;;;;5034978;28;19913;-75
2023/01/29 02:56:06;;;;;;;;;;;;;;;;;;5034413;28;20289;-75
2023/01/29 02:58:32;;;;;;;;;;;;;;;;;;5034886;28;19952;-75
2023/01/29 03:00:58;;;;;;;;;;;;;;;;;;5034946;28;19916;-75
2023/01/29 03:03:24;;;;;;;;;;;;;;;;;;5034805;28;19909;-75
2023/01/29 03:05:55;;;;;;;;;;;;;;;;;;5034749;28;19912;-76
2023/01/29 03:08:21;;;;;;;;;;;;;;;;;;5033151;28;19973;-75
2023/01/29 03:10:47;;;;;;;;;;;;;;;;;;5034676;28;20377;-75
2023/01/29 03:13:13;;;;;;;;;;;;;;;;;;5034482;28;19968;-74
2023/01/29 03:15:41;;;;;;;;;;;;;;;;;;5034567;28;19921;-75
2023/01/29 03:18:07;;;;;;;;;;;;;;;;;;5034470;28;19909;-75
2023/01/29 03:20:33;;;;;;;;;;;;;;;;;;5034449;28;19963;-75
2023/01/29 03:23:00;;;;;;;;;;;;;;;;;;5034593;28;19909;-75
2023/01/29 03:33:40;;;;;;;;;;;;;;;;;;5033975;28;19963;-75
2023/01/29 03:36:06;;;;;;;;;;;;;;;;;;5034147;28;19956;-75
2023/01/29 03:38:32;;;;;;;;;;;;;;;;;;5032902;28;19909;-75
2023/01/29 03:40:58;;;;;;;;;;;;;;;;;;5034352;28;19959;-75
2023/01/29 03:43:24;;;;;;;;;;;;;;;;;;5034270;28;19909;-75
2023/01/29 03:45:50;;;;;;;;;;;;;;;;;;5034199;28;19920;-75
2023/01/29 03:48:16;;;;;;;;;;;;;;;;;;5032714;28;19909;-75
2023/01/29 03:50:42;;;;;;;;;;;;;;;;;;5034364;28;20381;-76
2023/01/29 03:53:08;;;;;;;;;;;;;;;;;;5034292;28;20353;-75
2023/01/29 03:55:34;;;;;;;;;;;;;;;;;;5033943;28;19920;-75
2023/01/29 03:57:59;;;;;;;;;;;;;;;;;;5032614;28;19944;-76
2023/01/29 04:00:26;;;;;;;;;;;;;;;;;;5034323;28;19916;-75
2023/01/29 04:02:52;;;;;;;;;;;;;;;;;;5033883;28;19909;-74
2023/01/29 04:05:18;;;;;;;;;;;;;;;;;;5033942;28;19909;-75
2023/01/29 04:07:44;;;;;;;;;;;;;;;;;;5032962;28;19956;-76
2023/01/29 04:10:10;;;;;;;;;;;;;;;;;;5033737;28;20369;-75
2023/01/29 04:12:36;;;;;;;;;;;;;;;;;;5033722;28;19909;-75
2023/01/29 04:15:02;;;;;;;;;;;;;;;;;;5033431;28;20012;-75
2023/01/29 04:17:31;;;;;;;;;;;;;;;;;;5033971;28;19948;-74
2023/01/29 04:19:57;;;;;;;;;;;;;;;;;;5033650;28;19917;-74
2023/01/29 04:22:23;;;;;;;;;;;;;;;;;;5033628;28;19909;-75
2023/01/29 04:24:49;;;;;;;;;;;;;;;;;;5033936;28;20361;-75
2023/01/29 04:27:16;;;;;;;;;;;;;;;;;;5032325;28;19916;-75
2023/01/29 04:29:42;;;;;;;;;;;;;;;;;;5034063;28;19913;-75
2023/01/29 04:32:08;;;;;;;;;;;;;;;;;;5033556;28;19916;-76
2023/01/29 04:34:34;;;;;;;;;;;;;;;;;;5033518;28;19909;-75
2023/01/29 04:37:01;;;;;;;;;;;;;;;;;;5033786;28;20373;-75
2023/01/29 04:39:27;;;;;;;;;;;;;;;;;;5033452;28;20361;-74
2023/01/29 04:41:53;;;;;;;;;;;;;;;;;;5032150;28;19909;-75
2023/01/29 04:44:19;;;;;;;;;;;;;;;;;;5033865;28;19916;-76
2023/01/29 04:46:45;;;;;;;;;;;;;;;;;;5033396;28;20003;-75
2023/01/29 04:49:11;;;;;;;;;;;;;;;;;;5033378;28;19955;-74
2023/01/29 04:51:37;;;;;;;;;;;;;;;;;;5033411;28;19909;-76
2023/01/29 04:54:03;;;;;;;;;;;;;;;;;;5033310;28;19932;-75
2023/01/29 04:56:29;;;;;;;;;;;;;;;;;;5033320;28;19916;-75
2023/01/29 04:58:55;;;;;;;;;;;;;;;;;;5033307;28;19952;-75
2023/01/29 05:01:21;;;;;;;;;;;;;;;;;;5033247;28;19909;-75
2023/01/29 05:03:47;;;;;;;;;;;;;;;;;;5033432;28;19913;-76
2023/01/29 05:06:13;;;;;;;;;;;;;;;;;;5033221;28;19909;-75
2023/01/29 05:08:39;;;;;;;;;;;;;;;;;;5033184;28;19916;-76
2023/01/29 05:11:04;;;;;;;;;;;;;;;;;;5033172;28;19909;-75
2023/01/29 05:13:30;;;;;;;;;;;;;;;;;;5032969;28;19917;-75
2023/01/29 05:15:56;;;;;;;;;;;;;;;;;;5031781;28;19917;-75
2023/01/29 05:18:22;;;;;;;;;;;;;;;;;;5031856;28;19913;-75
2023/01/29 05:20:48;;;;;;;;;;;;;;;;;;5036895;28;19963;-75
2023/01/29 05:23:14;;;;;;;;;;;;;;;;;;5036705;28;19916;-75
2023/01/29 05:25:40;;;;;;;;;;;;;;;;;;5036743;28;19913;-75
2023/01/29 05:28:10;;;;;;;;;;;;;;;;;;5036644;28;19962;-74
2023/01/29 05:30:36;;;;;;;;;;;;;;;;;;5036513;28;19917;-75
2023/01/29 05:33:02;;;;;;;;;;;;;;;;;;5036855;28;19909;-75
2023/01/29 05:35:28;;;;;;;;;;;;;;;;;;5036517;28;19913;-75
2023/01/29 05:37:54;;;;;;;;;;;;;;;;;;5036546;28;20384;-75
2023/01/29 05:40:20;;;;;;;;;;;;;;;;;;5036610;28;19913;-75
2023/01/29 05:42:46;;;;;;;;;;;;;;;;;;5036725;28;20445;-74
2023/01/29 05:45:12;;;;;;;;;;;;;;;;;;5036325;28;19953;-75
2023/01/29 05:47:38;;;;;;;;;;;;;;;;;;5036354;28;19972;-74
2023/01/29 05:50:05;;;;;;;;;;;;;;;;;;5036280;28;20381;-75
2023/01/29 05:52:31;;;;;;;;;;;;;;;;;;5036202;28;20261;-76
2023/01/29 05:54:57;;;;;;;;;;;;;;;;;;5036012;28;19916;-75
2023/01/29 05:57:23;;;;;;;;;;;;;;;;;;5036132;28;19936;-75
2023/01/29 05:59:48;;;;;;;;;;;;;;;;;;5036027;28;19909;-75
2023/01/29 06:02:14;;;;;;;;;;;;;;;;;;5035959;28;19909;-75
2023/01/29 06:04:40;;;;;;;;;;;;;;;;;;5034667;28;19979;-75
2023/01/29 06:07:06;;;;;;;;;;;;;;;;;;5035936;28;20389;-75
2023/01/29 06:09:32;;;;;;;;;;;;;;;;;;5036141;28;20276;-75
2023/01/29 06:11:58;;;;;;;;;;;;;;;;;;5036020;28;19910;-74
2023/01/29 06:14:24;;;;;;;;;;;;;;;;;;5035525;28;19917;-75
2023/01/29 06:16:50;;;;;;;;;;;;;;;;;;5035655;28;19928;-75
2023/01/29 06:19:17;;;;;;;;;;;;;;;;;;5034384;28;20012;-75
2023/01/29 06:21:42;;;;;;;;;;;;;;;;;;5034364;28;19909;-75
2023/01/29 06:24:08;;;;;;;;;;;;;;;;;;5035563;28;19909;-75
2023/01/29 06:26:34;;;;;;;;;;;;;;;;;;5035577;28;19913;-75
2023/01/29 06:29:00;;;;;;;;;;;;;;;;;;5034195;28;19913;-75
2023/01/29 06:31:26;;;;;;;;;;;;;;;;;;5034592;28;19964;-75
2023/01/29 06:33:52;;;;;;;;;;;;;;;;;;5035375;28;20284;-76
2023/01/29 06:36:18;;;;;;;;;;;;;;;;;;5035298;28;19913;-75
2023/01/29 06:38:44;;;;;;;;;;;;;;;;;;5035313;28;19909;-75
2023/01/29 06:41:10;;;;;;;;;;;;;;;;;;5035225;28;20388;-75
2023/01/29 06:43:36;;;;;;;;;;;;;;;;;;5035546;28;19909;-75
2023/01/29 06:46:02;;;;;;;;;;;;;;;;;;5035134;28;19944;-75
2023/01/29 06:48:28;;;;;;;;;;;;;;;;;;5035300;28;19909;-75
2023/01/29 06:50:54;;;;;;;;;;;;;;;;;;5035120;28;19909;-75
2023/01/29 06:53:20;;;;;;;;;;;;;;;;;;5034994;28;19960;-74
2023/01/29 06:55:48;;;;;;;;;;;;;;;;;;5034386;28;20285;-74
2023/01/29 06:58:13;;;;;;;;;;;;;;;;;;5033619;28;20012;-74
2023/01/29 07:00:39;;;;;;;;;;;;;;;;;;5035105;28;19956;-74
2023/01/29 07:03:05;;;;;;;;;;;;;;;;;;5034800;28;19916;-74
2023/01/29 07:05:31;;;;;;;;;;;;;;;;;;5035191;28;20288;-75
2023/01/29 07:07:57;;;;;;;;;;;;;;;;;;5034709;28;19951;-75
2023/01/29 07:10:23;;;;;;;;;;;;;;;;;;5033394;28;20370;-75
2023/01/29 07:12:49;;;;;;;;;;;;;;;;;;5034459;28;19909;-75
2023/01/29 07:15:20;;;;;;;;;;;;;;;;;;5035001;28;19917;-75
2023/01/29 07:17:46;;;;;;;;;;;;;;;;;;5034983;28;19909;-76
2023/01/29 07:20:11;;;;;;;;;;;;;;;;;;5033212;28;19954;-75
2023/01/29 07:22:37;;;;;;;;;;;;;;;;;;5033137;28;20437;-75
2023/01/29 07:25:03;;;;;;;;;;;;;;;;;;5034416;28;19948;-75
2023/01/29 07:27:29;;;;;;;;;;;;;;;;;;5034682;28;19963;-75
2023/01/29 07:29:55;;;;;;;;;;;;;;;;;;5034318;28;19909;-75
2023/01/29 07:32:21;;;;;;;;;;;;;;;;;;5034272;28;20011;-75
2023/01/29 07:34:47;;;;;;;;;;;;;;;;;;5034210;28;19948;-74
2023/01/29 07:37:13;;;;;;;;;;;;;;;;;;5034637;28;19913;-75
2023/01/29 07:39:39;;;;;;;;;;;;;;;;;;5034146;28;19909;-75
2023/01/29 07:42:05;;;;;;;;;;;;;;;;;;5034074;28;19909;-75
2023/01/29 07:44:31;;;;;;;;;;;;;;;;;;5032845;28;19960;-75
2023/01/29 07:46:57;;;;;;;;;;;;;;;;;;5034075;28;19948;-75
2023/01/29 07:49:23;;;;;;;;;;;;;;;;;;5034142;28;19909;-75
2023/01/29 07:51:49;;;;;;;;;;;;;;;;;;5033999;28;19909;-75
2023/01/29 07:54:14;;;;;;;;;;;;;;;;;;5033895;28;19932;-76
2023/01/29 07:56:40;;;;;;;;;;;;;;;;;;5034018;28;20292;-75
2023/01/29 07:59:06;;;;;;;;;;;;;;;;;;5033883;28;20377;-75
2023/01/29 08:01:32;;;;;;;;;;;;;;;;;;5033848;28;20391;-74
2023/01/29 08:03:58;;;;;;;;;;;;;;;;;;5034183;28;19916;-75
2023/01/29 08:06:24;;;;;;;;;;;;;;;;;;5034069;28;19909;-75
2023/01/29 08:08:51;;;;;;;;;;;;;;;;;;5033786;28;19948;-74
2023/01/29 08:11:17;;;;;;;;;;;;;;;;;;5033717;28;19996;-75
2023/01/29 08:13:44;;;;;;;;;;;;;;;;;;5033481;28;20341;-75
2023/01/29 08:16:10;;;;;;;;;;;;;;;;;;5033763;28;19921;-75
2023/01/29 08:18:36;;;;;;;;;;;;;;;;;;5033657;28;19916;-75
2023/01/29 08:21:02;;;;;;;;;;;;;;;;;;5033625;28;19915;-75
2023/01/29 08:23:28;;;;;;;;;;;;;;;;;;5033592;28;19909;-75
2023/01/29 08:25:54;;;;;;;;;;;;;;;;;;5032288;28;19956;-76
2023/01/29 08:28:20;;;;;;;;;;;;;;;;;;5033667;28;19913;-74
2023/01/29 08:30:46;;;;;;;;;;;;;;;;;;5033914;28;20008;-75
2023/01/29 08:33:12;;;;;;;;;;;;;;;;;;5033507;28;20006;-75
2023/01/29 08:35:39;;;;;;;;;;;;;;;;;;5033450;28;19913;-75
2023/01/29 08:38:05;;;;;;;;;;;;;;;;;;5032354;28;20289;-74
2023/01/29 08:40:31;;;;;;;;;;;;;;;;;;5033642;28;19909;-75
2023/01/29 08:42:57;;;;;;;;;;;;;;;;;;5032100;28;19916;-74
2023/01/29 08:45:23;;;;;;;;;;;;;;;;;;5032096;28;19909;-75
2023/01/29 08:47:49;;;;;;;;;;;;;;;;;;5033568;28;20000;-75
2023/01/29 08:50:15;;;;;;;;;;;;;;;;;;5033403;28;19957;-75
2023/01/29 08:52:41;;;;;;;;;;;;;;;;;;5033352;28;19963;-75
2023/01/29 08:55:07;;;;;;;;;;;;;;;;;;5036034;28;19975;-75
2023/01/29 08:57:33;;;;;;;;;;;;;;;;;;5037415;28;19988;-75
2023/01/29 08:59:59;;;;;;;;;;;;;;;;;;5037095;28;19948;-75
2023/01/29 09:02:25;;;;;;;;;;;;;;;;;;5037074;28;19916;-75
2023/01/29 09:04:51;;;;;;;;;;;;;;;;;;5037139;28;19909;-75
2023/01/29 09:07:17;;;;;;;;;;;;;;;;;;5036963;28;20035;-75
2023/01/29 09:09:42;;;;;;;;;;;;;;;;;;5037091;28;19944;-76
2023/01/29 09:12:08;;;;;;;;;;;;;;;;;;5036922;28;19916;-76
2023/01/29 09:14:34;;;;;;;;;;;;;;;;;;5036511;28;19917;-75
2023/01/29 09:17:00;;;;;;;;;;;;;;;;;;5036814;28;19921;-76
2023/01/29 09:19:26;;;;;;;;;;;;;;;;;;5036851;28;19909;-75
2023/01/29 09:21:52;;;;;;;;;;;;;;;;;;5036750;28;19909;-75
2023/01/29 09:24:18;;;;;;;;;;;;;;;;;;5037214;28;19916;-75
2023/01/29 09:26:44;;;;;;;;;;;;;;;;;;5036592;28;19909;-75
2023/01/29 09:29:10;;;;;;;;;;;;;;;;;;5036739;28;19913;-75
2023/01/29 09:31:36;;;;;;;;;;;;;;;;;;5036515;28;19909;-75
2023/01/29 09:34:02;;;;;;;;;;;;;;;;;;5036967;28;19948;-74
2023/01/29 09:36:28;;;;;;;;;;;;;;;;;;5036604;28;20353;-76
2023/01/29 09:38:54;;;;;;;;;;;;;;;;;;5036527;28;19909;-75
2023/01/29 09:41:20;;;;;;;;;;;;;;;;;;5036363;28;19917;-75
2023/01/29 09:43:45;;;;;;;;;;;;;;;;;;5036417;28;19915;-75
2023/01/29 09:46:13;;;;;;;;;;;;;;;;;;5035020;28;20000;-75
2023/01/29 09:48:39;;;;;;;;;;;;;;;;;;5036301;28;19940;-75
2023/01/29 09:51:05;;;;;;;;;;;;;;;;;;5036232;28;19917;-75
2023/01/29 09:53:31;;;;;;;;;;;;;;;;;;5036172;28;19910;-75
2023/01/29 09:55:57;;;;;;;;;;;;;;;;;;5036100;28;19936;-75
2023/01/29 09:58:23;;;;;;;;;;;;;;;;;;5034813;28;19909;-75
2023/01/29 10:00:49;;;;;;;;;;;;;;;;;;5036186;28;20391;-75
2023/01/29 10:03:15;;;;;;;;;;;;;;;;;;5035980;28;20003;-75
2023/01/29 10:05:41;;;;;;;;;;;;;;;;;;5033326;28;19960;-75
2023/01/29 10:08:07;;;;;;;;;;;;;;;;;;5036282;28;19963;-75
2023/01/29 10:10:33;;;;;;;;;;;;;;;;;;5035938;28;19909;-75
2023/01/29 10:12:59;;;;;;;;;;;;;;;;;;5034292;28;19913;-75
2023/01/29 10:15:25;;;;;;;;;;;;;;;;;;5035663;28;19924;-75
2023/01/29 10:17:51;;;;;;;;;;;;;;;;;;5035596;28;19952;-76
2023/01/29 10:20:16;;;;;;;;;;;;;;;;;;5035816;28;19909;-75
2023/01/29 10:22:42;;;;;;;;;;;;;;;;;;5035709;28;19913;-75
2023/01/29 10:25:08;;;;;;;;;;;;;;;;;;5035542;28;20328;-75
2023/01/29 10:27:34;;;;;;;;;;;;;;;;;;5035586;28;20429;-75
2023/01/29 10:30:00;;;;;;;;;;;;;;;;;;5035422;28;19921;-75
2023/01/29 10:32:26;;;;;;;;;;;;;;;;;;5034115;28;20361;-75
2023/01/29 10:34:52;;;;;;;;;;;;;;;;;;5034041;28;19909;-75
2023/01/29 10:37:20;;;;;;;;;;;;;;;;;;5035380;28;19913;-75
2023/01/29 10:39:46;;;;;;;;;;;;;;;;;;5035230;28;19909;-75
2023/01/29 10:42:12;;;;;;;;;;;;;;;;;;5035411;28;19916;-75
2023/01/29 10:44:38;;;;;;;;;;;;;;;;;;5035467;28;19949;-75
2023/01/29 10:47:04;;;;;;;;;;;;;;;;;;5035268;28;19948;-75
2023/01/29 10:49:30;;;;;;;;;;;;;;;;;;5035062;28;19921;-75
2023/01/29 10:51:56;;;;;;;;;;;;;;;;;;5035066;28;19949;-75
2023/01/29 10:54:22;;;;;;;;;;;;;;;;;;5034922;28;19909;-75
2023/01/29 10:56:48;;;;;;;;;;;;;;;;;;5034823;28;19924;-76
2023/01/29 10:59:13;;;;;;;;;;;;;;;;;;5035191;28;19920;-75
2023/01/29 11:01:39;;;;;;;;;;;;;;;;;;5033565;28;19909;-75
2023/01/29 11:04:05;;;;;;;;;;;;;;;;;;5034783;28;19996;-75
2023/01/29 11:06:31;;;;;;;;;;;;;;;;;;5034769;28;20028;-75
2023/01/29 11:08:57;;;;;;;;;;;;;;;;;;5034972;28;20312;-76
2023/01/29 11:11:23;;;;;;;;;;;;;;;;;;5034685;28;19909;-75
2023/01/29 11:13:49;;;;;;;;;;;;;;;;;;5034635;28;20285;-75
2023/01/29 11:16:15;;;;;;;;;;;;;;;;;;5032907;28;20440;-75
2023/01/29 11:18:41;;;;;;;;;;;;;;;;;;5034486;28;19949;-74
2023/01/29 11:21:07;;;;;;;;;;;;;;;;;;5034636;28;20357;-76
2023/01/29 11:23:33;;;;;;;;;;;;;;;;;;5034500;28;20380;-74
2023/01/29 11:25:59;;;;;;;;;;;;;;;;;;5034644;28;19959;-76
2023/01/29 11:28:25;;;;;;;;;;;;;;;;;;5034556;28;19909;-74
2023/01/29 11:30:50;;;;;;;;;;;;;;;;;;5034356;28;19914;-75
2023/01/29 11:33:17;;;;;;;;;;;;;;;;;;5034376;28;19910;-75
2023/01/29 11:35:43;;;;;;;;;;;;;;;;;;5034101;28;19917;-75
2023/01/29 11:38:08;;;;;;;;;;;;;;;;;;5034195;28;20273;-76
2023/01/29 11:40:35;;;;;;;;;;;;;;;;;;5034177;28;20392;-76
2023/01/29 11:43:01;;;;;;;;;;;;;;;;;;5034224;28;19920;-75
2023/01/29 11:45:28;;;;;;;;;;;;;;;;;;5034064;28;19909;-75
2023/01/29 11:47:54;;;;;;;;;;;;;;;;;;5034035;28;19944;-75
2023/01/29 11:50:20;;;;;;;;;;;;;;;;;;5034031;28;19913;-75
2023/01/29 11:52:46;;;;;;;;;;;;;;;;;;5034216;28;20292;-75
2023/01/29 11:55:12;;;;;;;;;;;;;;;;;;5033784;28;20384;-75
2023/01/29 11:57:38;;;;;;;;;;;;;;;;;;5033893;28;19909;-74
2023/01/29 12:00:05;;;;;;;;;;;;;;;;;;5033891;28;19916;-75
2023/01/29 12:02:31;;;;;;;;;;;;;;;;;;5034003;28;19959;-75
2023/01/29 12:04:57;;;;;;;;;;;;;;;;;;5032501;28;20000;-76
2023/01/29 12:07:23;;;;;;;;;;;;;;;;;;5033921;28;19945;-75
2023/01/29 12:09:50;;;;;;;;;;;;;;;;;;5033737;28;19909;-76
2023/01/29 12:12:16;;;;;;;;;;;;;;;;;;5033684;28;19916;-76
2023/01/29 12:14:42;;;;;;;;;;;;;;;;;;5033300;28;20308;-74
2023/01/29 12:17:08;;;;;;;;;;;;;;;;;;5033533;28;20086;-75
2023/01/29 12:19:34;;;;;;;;;;;;;;;;;;5033811;28;20484;-75
2023/01/29 12:22:00;;;;;;;;;;;;;;;;;;5033613;28;19909;-75
2023/01/29 12:24:26;;;;;;;;;;;;;;;;;;5033595;28;19910;-75
2023/01/29 12:26:51;;;;;;;;;;;;;;;;;;5033601;28;20294;-76
2023/01/29 12:29:17;;;;;;;;;;;;;;;;;;5035235;28;19916;-75
2023/01/29 12:31:43;;;;;;;;;;;;;;;;;;5037637;28;19916;-74
2023/01/29 12:34:09;;;;;;;;;;;;;;;;;;5037896;28;19909;-75
2023/01/29 12:36:35;;;;;;;;;;;;;;;;;;5037501;28;19913;-74
2023/01/29 12:39:01;;;;;;;;;;;;;;;;;;5037532;28;19909;-74
2023/01/29 12:41:27;;;;;;;;;;;;;;;;;;5037573;28;20016;-75
2023/01/29 12:43:53;;;;;;;;;;;;;;;;;;5037456;28;19910;-75
2023/01/29 12:46:19;;;;;;;;;;;;;;;;;;5037626;28;19916;-75
2023/01/29 12:48:45;;;;;;;;;;;;;;;;;;5037373;28;19966;-75
2023/01/29 12:51:11;;;;;;;;;;;;;;;;;;5037292;28;19953;-75
2023/01/29 12:53:36;;;;;;;;;;;;;;;;;;5037366;28;20393;-75
2023/01/29 12:56:02;;;;;;;;;;;;;;;;;;5035794;28;19967;-74
2023/01/29 12:58:28;;;;;;;;;;;;;;;;;;5037512;28;19909;-75
2023/01/29 13:00:54;;;;;;;;;;;;;;;;;;5037405;28;19909;-75
2023/01/29 13:03:20;;;;;;;;;;;;;;;;;;5037079;28;19957;-75
2023/01/29 13:05:46;;;;;;;;;;;;;;;;;;5037136;28;19909;-75
2023/01/29 13:08:12;;;;;;;;;;;;;;;;;;5037032;28;20266;-75
2023/01/29 13:10:38;;;;;;;;;;;;;;;;;;5037241;28;19999;-75
2023/01/29 13:13:04;;;;;;;;;;;;;;;;;;5036575;28;19959;-74
2023/01/29 13:15:30;;;;;;;;;;;;;;;;;;5036849;28;20028;-74
2023/01/29 13:17:56;;;;;;;;;;;;;;;;;;5037258;28;19911;-76
2023/01/29 13:20:22;;;;;;;;;;;;;;;;;;5036956;28;19913;-75
2023/01/29 13:22:48;;;;;;;;;;;;;;;;;;5036735;28;19967;-74
2023/01/29 13:25:14;;;;;;;;;;;;;;;;;;5036684;28;19910;-75
2023/01/29 13:27:40;;;;;;;;;;;;;;;;;;5036678;28;19947;-75
2023/01/29 13:30:06;;;;;;;;;;;;;;;;;;5037033;28;19991;-75
2023/01/29 13:32:32;;;;;;;;;;;;;;;;;;5036553;28;19909;-75
2023/01/29 13:34:58;;;;;;;;;;;;;;;;;;5036792;28;19912;-74
2023/01/29 13:37:26;;;;;;;;;;;;;;;;;;5036420;28;19913;-75
2023/01/29 13:39:52;;;;;;;;;;;;;;;;;;5036027;28;19909;-75
2023/01/29 13:42:18;;;;;;;;;;;;;;;;;;5036583;28;19916;-75
2023/01/29 13:44:44;;;;;;;;;;;;;;;;;;5036424;28;19995;-75
2023/01/29 13:47:10;;;;;;;;;;;;;;;;;;5036210;28;19913;-74
2023/01/29 13:49:36;;;;;;;;;;;;;;;;;;5036237;28;19910;-75
2023/01/29 13:52:02;;;;;;;;;;;;;;;;;;5036209;28;19909;-74
2023/01/29 13:54:28;;;;;;;;;;;;;;;;;;5036318;28;19952;-75
2023/01/29 13:56:54;;;;;;;;;;;;;;;;;;5036084;28;19935;-75
2023/01/29 13:59:20;;;;;;;;;;;;;;;;;;5036073;28;20277;-75
2023/01/29 14:01:46;;;;;;;;;;;;;;;;;;5036445;28;20285;-75
2023/01/29 14:04:12;;;;;;;;;;;;;;;;;;5036001;28;19909;-74
2023/01/29 14:06:37;;;;;;;;;;;;;;;;;;5036213;28;20443;-75
2023/01/29 14:09:03;;;;;;;;;;;;;;;;;;5036077;28;19910;-75
2023/01/29 14:11:29;;;;;;;;;;;;;;;;;;5035909;28;19913;-75
2023/01/29 14:13:55;;;;;;;;;;;;;;;;;;5035449;28;19971;-75
2023/01/29 14:16:21;;;;;;;;;;;;;;;;;;5034412;28;19917;-76
2023/01/29 14:18:47;;;;;;;;;;;;;;;;;;5035722;28;20325;-75
2023/01/29 14:21:13;;;;;;;;;;;;;;;;;;5035611;28;19955;-74
2023/01/29 14:23:40;;;;;;;;;;;;;;;;;;5035700;28;19913;-74
2023/01/29 14:26:06;;;;;;;;;;;;;;;;;;5035653;28;19912;-75
2023/01/29 14:28:31;;;;;;;;;;;;;;;;;;5035545;28;19974;-75
2023/01/29 14:30:57;;;;;;;;;;;;;;;;;;5035811;28;20429;-74
2023/01/29 14:33:23;;;;;;;;;;;;;;;;;;5035435;28;19968;-75
2023/01/29 14:35:49;;;;;;;;;;;;;;;;;;5035404;28;19970;-75
2023/01/29 14:38:15;;;;;;;;;;;;;;;;;;5035289;28;19982;-74
2023/01/29 14:40:41;;;;;;;;;;;;;;;;;;5033983;28;20385;-75
2023/01/29 14:43:07;;;;;;;;;;;;;;;;;;5033969;28;19959;-75
2023/01/29 14:45:33;;;;;;;;;;;;;;;;;;5033882;28;19909;-75
2023/01/29 14:47:59;;;;;;;;;;;;;;;;;;5035135;28;19909;-75
2023/01/29 14:50:25;;;;;;;;;;;;;;;;;;5035039;28;19909;-74
2023/01/29 14:52:52;;;;;;;;;;;;;;;;;;5034745;28;19915;-75
2023/01/29 14:55:18;;;;;;;;;;;;;;;;;;5033521;28;20396;-74
2023/01/29 14:57:44;;;;;;;;;;;;;;;;;;5033650;28;19944;-75
2023/01/29 15:00:10;;;;;;;;;;;;;;;;;;5034911;28;19920;-76
2023/01/29 15:02:36;;;;;;;;;;;;;;;;;;5033587;28;19909;-74
2023/01/29 15:05:03;;;;;;;;;;;;;;;;;;5035010;28;19909;-75
2023/01/29 15:07:29;;;;;;;;;;;;;;;;;;5034752;28;19916;-74
2023/01/29 15:09:55;;;;;;;;;;;;;;;;;;5034761;28;19909;-74
2023/01/29 15:12:21;;;;;;;;;;;;;;;;;;5033494;28;19935;-75
2023/01/29 15:14:47;;;;;;;;;;;;;;;;;;5034534;28;20290;-75
2023/01/29 15:17:16;;;;;;;;;;;;;;;;;;5034519;28;19942;-76
2023/01/29 15:19:44;;;;;;;;;;;;;;;;;;5034547;28;19990;-74
2023/01/29 15:22:10;;;;;;;;;;;;;;;;;;5034565;28;20284;-74
2023/01/29 15:24:36;;;;;;;;;;;;;;;;;;5034897;28;19909;-74
2023/01/29 15:27:02;;;;;;;;;;;;;;;;;;5034410;28;19975;-75
2023/01/29 15:29:28;;;;;;;;;;;;;;;;;;5034360;28;19915;-74
2023/01/29 15:31:54;;;;;;;;;;;;;;;;;;5034327;28;19909;-75
2023/01/29 15:34:20;;;;;;;;;;;;;;;;;;5032972;28;19917;-75
2023/01/29 15:36:46;;;;;;;;;;;;;;;;;;5034272;28;19913;-74
2023/01/29 15:39:12;;;;;;;;;;;;;;;;;;5034215;28;19948;-75
2023/01/29 15:41:38;;;;;;;;;;;;;;;;;;5034138;28;19910;-75
2023/01/29 15:44:04;;;;;;;;;;;;;;;;;;5034498;28;19920;-75
2023/01/29 15:46:30;;;;;;;;;;;;;;;;;;5034213;28;20305;-74
2023/01/29 15:48:56;;;;;;;;;;;;;;;;;;5032833;28;19909;-75
2023/01/29 15:51:22;;;;;;;;;;;;;;;;;;5034009;28;19932;-75
2023/01/29 15:53:48;;;;;;;;;;;;;;;;;;5033975;28;19909;-75
2023/01/29 15:56:14;;;;;;;;;;;;;;;;;;5033784;28;19913;-74
2023/01/29 15:58:39;;;;;;;;;;;;;;;;;;5034043;28;19909;-75
2023/01/29 16:01:06;;;;;;;;;;;;;;;;;;5033885;28;19916;-75
2023/01/29 16:03:31;;;;;;;;;;;;;;;;;;5034116;28;19909;-75
2023/01/29 16:05:57;;;;;;;;;;;;;;;;;;5032545;28;20288;-75
2023/01/29 16:08:23;;;;;;;;;;;;;;;;;;5033830;28;19916;-75
2023/01/29 16:10:49;;;;;;;;;;;;;;;;;;5033763;28;19952;-75
2023/01/29 16:13:15;;;;;;;;;;;;;;;;;;5033549;28;19952;-74
2023/01/29 16:15:41;;;;;;;;;;;;;;;;;;5034134;28;19917;-75
2023/01/29 16:18:07;;;;;;;;;;;;;;;;;;5033794;28;19909;-75
2023/01/29 16:20:33;;;;;;;;;;;;;;;;;;5033648;28;19917;-76
2023/01/29 16:22:59;;;;;;;;;;;;;;;;;;5033850;28;19958;-75
2023/01/29 16:25:25;;;;;;;;;;;;;;;;;;5033925;28;19916;-75
2023/01/29 16:27:51;;;;;;;;;;;;;;;;;;5033747;28;19909;-75
2023/01/29 16:30:17;;;;;;;;;;;;;;;;;;5033548;28;20277;-75
2023/01/29 16:32:43;;;;;;;;;;;;;;;;;;5033606;28;20384;-76
2023/01/29 16:35:09;;;;;;;;;;;;;;;;;;5032249;28;19916;-75
2023/01/29 16:37:35;;;;;;;;;;;;;;;;;;5033362;28;19960;-74
2023/01/29 16:40:01;;;;;;;;;;;;;;;;;;5032179;28;19921;-75
2023/01/29 16:42:27;;;;;;;;;;;;;;;;;;5033627;28;19916;-75
2023/01/29 16:44:53;;;;;;;;;;;;;;;;;;5033403;28;20003;-75
2023/01/29 16:47:19;;;;;;;;;;;;;;;;;;5033378;28;19944;-75
2023/01/29 16:49:45;;;;;;;;;;;;;;;;;;5033419;28;19940;-75
2023/01/29 16:52:11;;;;;;;;;;;;;;;;;;5033394;28;19936;-75
2023/01/29 16:54:37;;;;;;;;;;;;;;;;;;5033400;28;19909;-75